Time;durP1;ratioP1;P1;durP2;ratioP2;P2;SDS_P1;SDS_P2;PMS_P1;PMS_P2;Temp;Humidity;BMP_temperature;BMP_pressure;BME280_temperature;BME280_humidity;BME280_pressure;Samples;Min_cycle;Max_cycle;Signal;HPM_P1;HPM_P2
2021/06/24 00:01:01;;;;;;;2.85;1.40;;;22.10;72.10;;;;;;2349685;53;21462;-70
2021/06/24 00:03:29;;;;;;;3.33;1.30;;;22.10;72.30;;;;;;2349352;53;21851;-67
2021/06/24 00:05:55;;;;;;;2.28;1.15;;;22.00;72.30;;;;;;2588104;52;21007;-66
2021/06/24 00:08:22;;;;;;;1.87;0.93;;;21.90;72.30;;;;;;2349856;53;20910;-70
2021/06/24 00:10:49;;;;;;;2.40;1.00;;;21.80;72.30;;;;;;2357475;53;20978;-67
2021/06/24 00:13:15;;;;;;;4.62;1.05;;;21.70;72.40;;;;;;2351535;53;21523;-67
2021/06/24 00:15:41;;;;;;;2.75;1.20;;;21.70;72.60;;;;;;2349024;53;20942;-66
2021/06/24 00:18:10;;;;;;;2.95;1.00;;;21.60;72.60;;;;;;2354687;53;20990;-67
2021/06/24 00:20:37;;;;;;;1.60;0.88;;;21.60;72.60;;;;;;2353491;53;20955;-71
2021/06/24 00:23:04;;;;;;;2.60;0.95;;;21.50;72.70;;;;;;2346963;53;20918;-67
2021/06/24 00:25:30;;;;;;;2.12;1.00;;;21.40;72.70;;;;;;2348565;53;21348;-67
2021/06/24 00:27:58;;;;;;;2.78;1.10;;;21.40;73.00;;;;;;2341714;53;20924;-67
2021/06/24 00:30:24;;;;;;;2.15;1.00;;;21.40;73.20;;;;;;2588354;52;20973;-69
2021/06/24 00:32:50;;;;;;;2.75;0.93;;;21.40;73.30;;;;;;2594077;52;21070;-68
2021/06/24 00:35:17;;;;;;;3.08;1.12;;;21.30;73.40;;;;;;2349978;53;21427;-69
2021/06/24 00:37:43;;;;;;;6.90;1.48;;;21.30;73.60;;;;;;2348355;53;21822;-68
2021/06/24 00:40:11;;;;;;;3.47;1.20;;;21.30;73.60;;;;;;2586601;52;21029;-67
2021/06/24 00:42:38;;;;;;;2.03;1.05;;;21.20;73.60;;;;;;2456379;52;21031;-72
2021/06/24 00:45:06;;;;;;;2.78;1.20;;;21.20;73.80;;;;;;2502410;52;20982;-70
2021/06/24 00:47:47;;;;;;;2.67;0.95;;;21.20;74.00;;;;;;2346621;53;21073;-71
2021/06/24 00:50:13;;;;;;;2.97;1.20;;;21.10;73.80;;;;;;2344803;53;20986;-67
2021/06/24 00:52:39;;;;;;;2.10;1.00;;;21.10;74.00;;;;;;2346660;53;20912;-67
2021/06/24 00:55:06;;;;;;;2.10;0.98;;;21.10;74.20;;;;;;2345028;53;20912;-68
2021/06/24 00:57:32;;;;;;;2.40;1.25;;;21.10;74.40;;;;;;2350546;53;20942;-67
2021/06/24 00:59:59;;;;;;;2.55;1.20;;;21.10;74.50;;;;;;2348457;53;20978;-67
2021/06/24 01:02:25;;;;;;;2.08;1.02;;;21.10;74.70;;;;;;2352461;52;20938;-67
2021/06/24 01:04:51;;;;;;;2.22;1.12;;;21.10;74.80;;;;;;2348696;53;20977;-67
2021/06/24 01:07:18;;;;;;;3.33;1.17;;;21.10;74.90;;;;;;2346348;53;21045;-67
2021/06/24 01:09:44;;;;;;;2.58;1.12;;;21.10;75.00;;;;;;2356311;53;21037;-67
2021/06/24 01:12:12;;;;;;;2.72;1.00;;;21.10;75.00;;;;;;2344381;53;20965;-67
2021/06/24 01:14:39;;;;;;;4.10;1.17;;;21.10;75.10;;;;;;2346305;53;21010;-70
2021/06/24 01:17:09;;;;;;;2.55;1.35;;;21.10;75.10;;;;;;2353632;53;21413;-67
2021/06/24 01:19:35;;;;;;;2.20;1.02;;;21.10;75.10;;;;;;2349233;53;20966;-71
2021/06/24 01:22:02;;;;;;;3.22;1.20;;;21.20;75.20;;;;;;2347314;53;20993;-71
2021/06/24 01:24:28;;;;;;;3.42;1.10;;;21.10;75.10;;;;;;2344485;53;20953;-67
2021/06/24 01:26:54;;;;;;;2.30;0.95;;;21.10;75.20;;;;;;2348739;53;21851;-67
2021/06/24 01:29:21;;;;;;;2.00;1.10;;;21.10;75.20;;;;;;2346064;53;21466;-67
2021/06/24 01:31:47;;;;;;;3.40;0.90;;;21.10;75.30;;;;;;2500670;52;20944;-67
2021/06/24 01:34:14;;;;;;;2.10;0.93;;;21.10;75.40;;;;;;2344695;54;21487;-71
2021/06/24 01:36:40;;;;;;;2.30;0.93;;;21.10;75.40;;;;;;2348859;53;21016;-67
2021/06/24 01:39:12;;;;;;;3.60;1.00;;;21.10;75.40;;;;;;2350872;53;20970;-67
2021/06/24 01:41:38;;;;;;;3.20;1.10;;;21.10;75.30;;;;;;2345491;53;20943;-72
2021/06/24 01:44:04;;;;;;;2.35;0.90;;;21.10;75.30;;;;;;2353264;53;21815;-72
2021/06/24 01:46:32;;;;;;;2.72;1.00;;;21.10;75.40;;;;;;2330074;53;21038;-69
2021/06/24 01:48:58;;;;;;;2.33;1.10;;;21.10;75.40;;;;;;2347489;53;20962;-71
2021/06/24 01:51:26;;;;;;;2.95;1.00;;;21.10;75.40;;;;;;2345689;53;21391;-72
2021/06/24 01:53:52;;;;;;;2.17;1.08;;;21.10;75.50;;;;;;2327233;53;20920;-71
2021/06/24 01:56:18;;;;;;;2.75;1.37;;;21.10;75.40;;;;;;2588308;52;20942;-68
2021/06/24 01:58:44;;;;;;;1.87;0.90;;;21.10;75.40;;;;;;2590456;52;20915;-69
2021/06/24 02:01:11;;;;;;;1.98;0.95;;;21.10;75.40;;;;;;2464356;52;20999;-71
2021/06/24 02:03:37;;;;;;;1.98;0.98;;;21.10;75.30;;;;;;2589792;52;21486;-67
2021/06/24 02:06:04;;;;;;;2.35;1.00;;;21.00;75.20;;;;;;2588578;52;20938;-67
2021/06/24 02:08:31;;;;;;;3.42;1.35;;;21.00;75.30;;;;;;2591326;52;20950;-69
2021/06/24 02:10:58;;;;;;;2.33;1.15;;;21.00;75.30;;;;;;2586866;52;20962;-67
2021/06/24 02:13:24;;;;;;;3.83;1.10;;;21.00;75.40;;;;;;2347369;53;20927;-69
2021/06/24 02:15:51;;;;;;;2.17;1.08;;;21.00;75.50;;;;;;2349420;53;20957;-72
2021/06/24 02:18:17;;;;;;;2.50;1.23;;;21.00;75.50;;;;;;2347620;53;20974;-71
2021/06/24 02:20:43;;;;;;;2.10;1.00;;;21.00;75.60;;;;;;2391654;53;20938;-71
2021/06/24 02:23:10;;;;;;;2.80;1.30;;;21.00;75.60;;;;;;2351711;53;20922;-70
2021/06/24 02:25:36;;;;;;;2.10;1.10;;;21.00;75.50;;;;;;2488501;52;20979;-73
2021/06/24 02:28:02;;;;;;;2.42;0.90;;;21.00;75.50;;;;;;2341179;53;20999;-67
2021/06/24 02:30:29;;;;;;;3.00;1.08;;;21.00;75.60;;;;;;2456152;52;20977;-67
2021/06/24 02:32:55;;;;;;;2.05;1.10;;;21.00;75.60;;;;;;2348640;53;21455;-67
2021/06/24 02:35:21;;;;;;;2.10;0.90;;;20.90;75.50;;;;;;2346064;53;20981;-68
2021/06/24 02:37:49;;;;;;;2.20;0.82;;;21.00;75.60;;;;;;2351340;53;20997;-67
2021/06/24 02:40:16;;;;;;;2.50;1.05;;;20.90;75.60;;;;;;2347945;53;20958;-71
2021/06/24 02:42:43;;;;;;;1.83;0.80;;;20.90;75.50;;;;;;2402653;52;20914;-67
2021/06/24 02:45:10;;;;;;;2.30;1.10;;;20.90;75.50;;;;;;2350091;53;21860;-67
2021/06/24 02:47:36;;;;;;;2.50;1.20;;;20.90;75.50;;;;;;2588864;52;20946;-67
2021/06/24 02:50:04;;;;;;;2.25;1.00;;;20.90;75.40;;;;;;2349032;53;21431;-70
2021/06/24 02:52:31;;;;;;;1.75;0.80;;;20.90;75.40;;;;;;2347835;53;22006;-69
2021/06/24 02:54:57;;;;;;;2.40;1.20;;;20.90;75.40;;;;;;2348745;53;20998;-67
2021/06/24 02:57:23;;;;;;;1.70;0.88;;;20.80;75.40;;;;;;2330569;53;22024;-71
2021/06/24 02:59:49;;;;;;;2.25;1.05;;;20.90;75.50;;;;;;2587050;52;21077;-67
2021/06/24 03:02:16;;;;;;;2.10;1.20;;;20.80;75.50;;;;;;2347815;53;21798;-67
2021/06/24 03:04:42;;;;;;;2.35;1.10;;;20.80;75.60;;;;;;2352746;53;21507;-67
2021/06/24 03:07:08;;;;;;;2.12;1.02;;;20.80;75.60;;;;;;2586782;52;20924;-67
2021/06/24 03:09:34;;;;;;;2.05;1.00;;;20.80;75.70;;;;;;2348354;53;20989;-67
2021/06/24 03:12:01;;;;;;;2.25;1.00;;;20.80;75.80;;;;;;2345603;53;21018;-68
2021/06/24 03:14:27;;;;;;;2.90;1.23;;;20.80;75.90;;;;;;2348162;53;21458;-67
2021/06/24 03:16:53;;;;;;;2.37;1.25;;;20.80;75.90;;;;;;2346585;53;20978;-68
2021/06/24 03:19:20;;;;;;;2.33;1.10;;;20.80;75.90;;;;;;2347461;53;20946;-67
2021/06/24 03:21:46;;;;;;;2.83;1.45;;;20.80;75.90;;;;;;2345714;54;20921;-70
2021/06/24 03:24:12;;;;;;;2.53;1.23;;;20.70;75.90;;;;;;2350497;53;21009;-69
2021/06/24 03:26:39;;;;;;;2.58;1.12;;;20.70;75.90;;;;;;2345799;53;21026;-69
2021/06/24 03:29:05;;;;;;;3.55;1.10;;;20.80;76.10;;;;;;2586044;52;20917;-67
2021/06/24 03:31:32;;;;;;;2.08;1.00;;;20.70;76.00;;;;;;2380889;52;22053;-68
2021/06/24 03:33:58;;;;;;;2.20;1.00;;;20.70;76.00;;;;;;2474430;52;21105;-67
2021/06/24 03:36:25;;;;;;;2.20;1.20;;;20.70;76.10;;;;;;2350737;53;21005;-67
2021/06/24 03:38:51;;;;;;;2.08;1.00;;;20.70;76.30;;;;;;2345276;53;21755;-68
2021/06/24 03:41:25;;;;;;;2.30;1.20;;;20.80;76.30;;;;;;2345497;53;21671;-67
2021/06/24 03:43:54;;;;;;;3.67;1.10;;;20.70;76.30;;;;;;2538244;52;21490;-68
2021/06/24 03:46:22;;;;;;;3.42;1.40;;;20.80;76.20;;;;;;2352328;53;20973;-69
2021/06/24 03:48:48;;;;;;;2.08;1.25;;;20.70;76.20;;;;;;2349200;53;20974;-67
2021/06/24 03:51:14;;;;;;;2.78;1.25;;;20.80;76.30;;;;;;2346973;53;20994;-67
2021/06/24 03:53:40;;;;;;;2.92;1.50;;;20.80;76.20;;;;;;2370210;53;20969;-70
2021/06/24 03:56:08;;;;;;;2.80;1.50;;;20.70;76.00;;;;;;2347680;53;21004;-69
2021/06/24 03:58:34;;;;;;;2.60;1.20;;;20.70;76.00;;;;;;2343536;53;20941;-67
2021/06/24 04:01:01;;;;;;;3.05;1.55;;;20.80;76.10;;;;;;2351738;53;21066;-67
2021/06/24 04:03:27;;;;;;;3.12;1.50;;;20.70;76.00;;;;;;2362295;52;20947;-69
2021/06/24 04:05:54;;;;;;;2.70;1.50;;;20.70;76.20;;;;;;2348498;53;21385;-67
2021/06/24 04:08:23;;;;;;;3.37;1.90;;;20.70;76.30;;;;;;2328173;54;20958;-67
2021/06/24 04:10:59;;;;;;;2.80;1.55;;;20.80;76.40;;;;;;2348814;53;21422;-67
2021/06/24 04:13:25;;;;;;;2.83;1.40;;;20.70;76.40;;;;;;2588327;52;20989;-70
2021/06/24 04:15:52;;;;;;;2.78;1.70;;;20.70;76.40;;;;;;2346177;53;21054;-67
2021/06/24 04:18:18;;;;;;;2.90;1.80;;;20.70;76.40;;;;;;2352848;53;20923;-69
2021/06/24 04:20:44;;;;;;;3.50;1.90;;;20.70;76.40;;;;;;2365726;53;21537;-70
2021/06/24 04:23:11;;;;;;;2.87;1.50;;;20.70;76.50;;;;;;2588847;52;21082;-67
2021/06/24 04:25:38;;;;;;;3.17;1.62;;;20.70;76.60;;;;;;2353299;53;20959;-70
2021/06/24 04:28:04;;;;;;;2.75;1.60;;;20.80;76.80;;;;;;2347828;53;20926;-68
2021/06/24 04:30:31;;;;;;;4.15;2.00;;;20.80;76.90;;;;;;2345242;53;20930;-69
2021/06/24 04:32:59;;;;;;;3.03;2.00;;;20.80;77.00;;;;;;2587640;52;20962;-67
2021/06/24 04:35:27;;;;;;;3.17;2.20;;;20.80;77.00;;;;;;2480243;52;20933;-67
2021/06/24 04:37:54;;;;;;;2.80;1.67;;;20.80;77.00;;;;;;2347055;53;21004;-72
2021/06/24 04:40:20;;;;;;;3.17;1.83;;;20.90;77.20;;;;;;2345731;53;20946;-68
2021/06/24 04:42:48;;;;;;;4.40;1.80;;;20.90;77.30;;;;;;2347983;53;21001;-67
2021/06/24 04:45:14;;;;;;;2.92;1.80;;;20.90;77.30;;;;;;2344908;54;20920;-67
2021/06/24 04:47:41;;;;;;;3.30;2.05;;;20.90;77.30;;;;;;2349012;53;20962;-67
2021/06/24 04:50:10;;;;;;;4.12;2.33;;;20.90;77.10;;;;;;2345821;53;21008;-70
2021/06/24 04:52:36;;;;;;;3.60;2.28;;;20.90;77.00;;;;;;2350852;53;20954;-67
2021/06/24 04:55:03;;;;;;;3.45;2.17;;;21.00;77.10;;;;;;2347033;53;20942;-67
2021/06/24 04:57:30;;;;;;;3.35;2.20;;;21.00;77.10;;;;;;2372421;53;20958;-70
2021/06/24 05:00:05;;;;;;;3.70;1.95;;;21.00;77.10;;;;;;2486153;52;20991;-66
2021/06/24 05:02:32;;;;;;;3.08;1.80;;;21.00;76.90;;;;;;2346479;53;21013;-67
2021/06/24 05:04:58;;;;;;;3.90;2.33;;;21.00;77.00;;;;;;2586547;52;21016;-68
2021/06/24 05:07:26;;;;;;;3.75;2.03;;;21.00;76.90;;;;;;2587366;52;20962;-69
2021/06/24 05:09:53;;;;;;;3.87;1.85;;;21.10;77.00;;;;;;2344383;53;20929;-71
2021/06/24 05:12:24;;;;;;;2.92;1.60;;;21.10;77.00;;;;;;2345013;53;21715;-71
2021/06/24 05:14:52;;;;;;;3.37;1.80;;;21.10;77.00;;;;;;2345746;53;21341;-67
2021/06/24 05:17:18;;;;;;;3.12;1.87;;;21.10;76.90;;;;;;2348675;53;20926;-71
2021/06/24 05:19:45;;;;;;;3.20;2.10;;;21.10;76.90;;;;;;2345943;53;21244;-72
2021/06/24 05:22:11;;;;;;;3.40;2.05;;;21.10;77.00;;;;;;2348303;53;20955;-74
2021/06/24 05:24:38;;;;;;;3.20;1.75;;;21.10;77.10;;;;;;2346181;53;20944;-68
2021/06/24 05:27:05;;;;;;;2.78;1.80;;;21.10;77.20;;;;;;2344171;54;20928;-67
2021/06/24 05:29:32;;;;;;;2.30;1.35;;;21.20;77.40;;;;;;2347251;53;21009;-68
2021/06/24 05:31:58;;;;;;;2.40;1.40;;;21.20;77.40;;;;;;2349002;53;21466;-68
2021/06/24 05:34:24;;;;;;;;;;;21.20;77.50;;;;;;2328671;53;1315253;-67
2021/06/24 05:36:51;;;;;;;2.60;1.60;;;21.20;76.70;;;;;;2475200;52;20900;-70
2021/06/24 05:39:18;;;;;;;2.62;1.60;;;21.30;77.60;;;;;;2347579;53;20994;-69
2021/06/24 05:41:44;;;;;;;2.80;1.50;;;21.30;77.70;;;;;;2480932;52;20932;-67
2021/06/24 05:44:12;;;;;;;2.42;1.20;;;21.40;77.70;;;;;;2344347;53;21004;-68
2021/06/24 05:46:38;;;;;;;2.30;1.33;;;21.40;77.60;;;;;;2345975;53;20953;-69
2021/06/24 05:49:04;;;;;;;3.60;1.50;;;21.40;77.60;;;;;;2588347;52;20917;-67
2021/06/24 05:51:31;;;;;;;2.58;1.45;;;21.50;77.70;;;;;;2374652;52;20933;-68
2021/06/24 05:53:57;;;;;;;2.45;1.45;;;21.50;77.60;;;;;;2350196;53;20915;-67
2021/06/24 05:56:24;;;;;;;2.50;1.50;;;21.50;77.70;;;;;;2349748;53;20991;-67
2021/06/24 05:58:53;;;;;;;2.33;1.25;;;21.60;77.70;;;;;;2349592;54;21877;-68
2021/06/24 06:01:21;;;;;;;2.65;1.62;;;21.60;77.60;;;;;;2351280;53;21026;-67
2021/06/24 06:03:47;;;;;;;3.47;1.77;;;21.70;77.80;;;;;;2348679;53;20961;-67
2021/06/24 06:06:13;;;;;;;2.25;1.27;;;21.70;77.80;;;;;;2347084;53;21012;-68
2021/06/24 06:08:40;;;;;;;2.90;1.52;;;21.80;77.70;;;;;;2371996;53;20920;-70
2021/06/24 06:11:06;;;;;;;3.85;1.48;;;21.80;77.60;;;;;;2356650;53;21502;-66
2021/06/24 06:13:32;;;;;;;3.97;1.50;;;21.90;77.60;;;;;;2343162;53;21441;-67
2021/06/24 06:15:59;;;;;;;2.47;1.30;;;21.90;77.50;;;;;;2591432;52;20951;-70
2021/06/24 06:18:25;;;;;;;2.30;1.27;;;21.90;77.20;;;;;;2350812;53;20991;-67
2021/06/24 06:20:53;;;;;;;2.97;1.60;;;22.00;77.10;;;;;;2348483;54;21058;-70
2021/06/24 06:23:21;;;;;;;2.35;1.30;;;22.00;77.30;;;;;;2324916;54;20972;-69
2021/06/24 06:25:50;;;;;;;3.10;1.42;;;22.00;77.00;;;;;;2345218;53;21069;-67
2021/06/24 06:28:16;;;;;;;3.37;1.80;;;22.10;77.70;;;;;;2348691;53;21030;-69
2021/06/24 06:30:46;;;;;;;2.95;1.70;;;22.10;77.30;;;;;;2348690;53;20982;-67
2021/06/24 06:33:17;;;;;;;2.65;1.52;;;22.10;77.40;;;;;;2347910;53;21001;-67
2021/06/24 06:35:44;;;;;;;2.62;1.42;;;22.20;77.80;;;;;;2345492;53;20979;-70
2021/06/24 06:38:10;;;;;;;2.95;1.40;;;22.30;77.80;;;;;;2352904;53;21051;-67
2021/06/24 06:40:39;;;;;;;2.78;1.40;;;22.30;77.70;;;;;;2586758;52;20938;-67
2021/06/24 06:43:06;;;;;;;3.80;1.55;;;22.40;77.50;;;;;;2345522;53;20918;-69
2021/06/24 06:45:39;;;;;;;3.00;1.67;;;22.40;77.10;;;;;;2343831;53;20991;-67
2021/06/24 06:48:06;;;;;;;2.90;1.55;;;22.40;76.50;;;;;;2588094;52;21077;-71
2021/06/24 06:50:32;;;;;;;2.95;1.70;;;22.50;76.40;;;;;;2347040;53;20950;-74
2021/06/24 06:52:58;;;;;;;3.60;2.35;;;22.50;76.40;;;;;;2347213;53;21386;-69
2021/06/24 06:55:30;;;;;;;3.17;1.80;;;22.50;76.30;;;;;;2356443;52;21467;-70
2021/06/24 06:57:57;;;;;;;2.70;1.55;;;22.50;76.40;;;;;;2347390;53;20962;-67
2021/06/24 07:00:24;;;;;;;2.85;1.83;;;22.50;76.40;;;;;;2508005;52;20946;-67
2021/06/24 07:02:54;;;;;;;2.87;1.67;;;22.50;76.20;;;;;;2348912;53;21134;-67
2021/06/24 07:05:20;;;;;;;3.47;1.70;;;22.50;76.10;;;;;;2388090;53;21070;-67
2021/06/24 07:07:47;;;;;;;2.92;1.58;;;22.50;76.40;;;;;;2353640;53;21523;-67
2021/06/24 07:10:13;;;;;;;3.05;1.87;;;22.60;76.90;;;;;;2346821;53;21062;-68
2021/06/24 07:12:39;;;;;;;3.12;1.85;;;22.60;77.10;;;;;;2353765;53;21005;-67
2021/06/24 07:15:07;;;;;;;2.85;1.58;;;22.60;77.00;;;;;;2351083;53;20962;-67
2021/06/24 07:17:33;;;;;;;2.62;1.45;;;22.70;77.00;;;;;;2350216;53;21840;-72
2021/06/24 07:20:00;;;;;;;3.10;1.75;;;22.70;77.10;;;;;;2348076;53;20982;-68
2021/06/24 07:22:26;;;;;;;2.45;1.40;;;22.80;77.30;;;;;;2349848;53;21443;-69
2021/06/24 07:24:53;;;;;;;3.10;1.67;;;22.90;77.30;;;;;;2349553;53;20998;-67
2021/06/24 07:27:20;;;;;;;3.17;1.40;;;22.90;77.00;;;;;;2348645;53;21030;-67
2021/06/24 07:29:46;;;;;;;3.58;1.70;;;22.90;76.70;;;;;;2351422;53;20982;-67
2021/06/24 07:32:12;;;;;;;3.45;1.67;;;23.00;76.40;;;;;;2433035;52;21058;-72
2021/06/24 07:34:38;;;;;;;2.62;1.35;;;23.00;76.20;;;;;;2361302;53;20967;-69
2021/06/24 07:37:05;;;;;;;2.85;1.40;;;23.10;76.30;;;;;;2349162;53;21015;-67
2021/06/24 07:39:31;;;;;;;2.58;1.58;;;23.10;76.50;;;;;;2351011;53;21729;-68
2021/06/24 07:41:57;;;;;;;3.05;1.55;;;23.10;76.40;;;;;;2347264;53;21030;-66
2021/06/24 07:44:24;;;;;;;2.72;1.42;;;23.10;76.20;;;;;;2345749;53;20899;-67
2021/06/24 07:46:50;;;;;;;3.40;1.48;;;23.20;75.90;;;;;;2343036;53;21894;-66
2021/06/24 07:49:17;;;;;;;2.45;1.40;;;23.20;75.60;;;;;;2349848;53;21010;-67
2021/06/24 07:51:43;;;;;;;3.35;1.87;;;23.20;75.40;;;;;;2593092;53;21052;-67
2021/06/24 07:54:10;;;;;;;2.67;1.50;;;23.20;75.40;;;;;;2346806;57;21032;-68
2021/06/24 07:56:38;;;;;;;2.53;1.30;;;23.20;75.30;;;;;;2340341;54;20952;-67
2021/06/24 07:59:05;;;;;;;2.87;1.70;;;23.30;75.60;;;;;;2350588;53;21490;-70
2021/06/24 08:01:31;;;;;;;2.78;1.27;;;23.30;76.00;;;;;;2346166;53;20983;-66
2021/06/24 08:03:58;;;;;;;2.60;1.45;;;23.20;76.40;;;;;;2346257;53;20965;-65
2021/06/24 08:06:25;;;;;;;2.50;1.02;;;23.30;77.10;;;;;;2343191;53;20950;-68
2021/06/24 08:08:52;;;;;;;4.45;1.48;;;23.40;77.20;;;;;;2346013;54;21051;-71
2021/06/24 08:11:18;;;;;;;3.35;1.50;;;23.50;76.90;;;;;;2348350;53;20966;-67
2021/06/24 08:13:44;;;;;;;2.53;1.60;;;23.50;76.40;;;;;;2350916;53;20962;-67
2021/06/24 08:16:10;;;;;;;2.85;1.55;;;23.60;76.40;;;;;;2586112;52;20989;-70
2021/06/24 08:18:37;;;;;;;2.80;1.50;;;23.70;76.20;;;;;;2346120;53;20998;-66
2021/06/24 08:21:05;;;;;;;2.75;1.40;;;23.70;75.80;;;;;;2559239;52;21002;-67
2021/06/24 08:23:32;;;;;;;3.35;1.58;;;23.70;75.60;;;;;;2350360;53;21367;-67
2021/06/24 08:25:59;;;;;;;2.87;1.80;;;23.70;75.60;;;;;;2344945;53;21005;-72
2021/06/24 08:28:25;;;;;;;2.75;1.62;;;23.70;75.60;;;;;;2344762;53;20968;-68
2021/06/24 08:30:52;;;;;;;3.55;1.90;;;23.80;75.90;;;;;;2346668;53;20954;-67
2021/06/24 08:33:18;;;;;;;2.50;1.35;;;23.80;75.90;;;;;;2349625;53;22049;-67
2021/06/24 08:35:45;;;;;;;2.47;1.52;;;23.90;76.00;;;;;;2346890;53;20964;-66
2021/06/24 08:38:11;;;;;;;3.08;1.52;;;23.90;76.10;;;;;;2344740;53;20993;-67
2021/06/24 08:40:39;;;;;;;2.00;1.20;;;24.00;76.30;;;;;;2349200;53;20953;-69
2021/06/24 08:43:05;;;;;;;2.60;1.50;;;24.10;76.40;;;;;;2549410;52;21558;-70
2021/06/24 08:45:32;;;;;;;2.65;1.67;;;24.10;76.60;;;;;;2344774;53;21005;-67
2021/06/24 08:47:59;;;;;;;3.30;2.12;;;24.20;76.90;;;;;;2350029;53;21090;-67
2021/06/24 08:50:25;;;;;;;2.65;1.58;;;24.30;76.60;;;;;;2344566;53;21150;-67
2021/06/24 08:52:55;;;;;;;3.65;1.60;;;24.40;76.30;;;;;;2346822;53;20938;-70
2021/06/24 08:55:22;;;;;;;2.65;1.50;;;24.50;76.00;;;;;;2345833;53;20920;-67
2021/06/24 08:57:50;;;;;;;3.30;1.52;;;24.60;75.90;;;;;;2345489;53;21017;-71
2021/06/24 09:00:17;;;;;;;2.90;1.73;;;24.60;76.10;;;;;;2347387;53;21609;-66
2021/06/24 09:02:49;;;;;;;3.05;1.55;;;24.70;76.00;;;;;;2587381;52;21022;-67
2021/06/24 09:05:15;;;;;;;3.15;1.40;;;24.80;76.00;;;;;;2352492;53;20935;-67
2021/06/24 09:07:51;;;;;;;3.12;1.60;;;24.90;75.90;;;;;;2344687;53;21818;-67
2021/06/24 09:10:21;;;;;;;2.50;1.33;;;25.00;74.30;;;;;;2344546;53;20944;-67
2021/06/24 09:13:05;;;;;;;2.30;1.30;;;25.10;75.00;;;;;;2345719;53;21065;-68
2021/06/24 09:15:36;;;;;;;2.28;1.17;;;25.10;73.50;;;;;;2346124;53;20984;-67
2021/06/24 09:18:02;;;;;;;2.97;1.15;;;25.20;74.50;;;;;;2344447;53;20924;-66
2021/06/24 09:20:30;;;;;;;3.17;1.20;;;25.20;74.70;;;;;;2347825;53;20968;-70
2021/06/24 09:26:32;;;;;;;2.10;1.10;;;25.20;74.40;;;;;;2347640;53;21002;-67
2021/06/24 09:29:00;;;;;;;2.67;1.10;;;25.40;73.30;;;;;;2349267;54;21533;-67
2021/06/24 09:31:28;;;;;;;2.47;1.30;;;25.40;74.10;;;;;;2352746;53;21499;-70
2021/06/24 09:34:05;;;;;;;2.37;1.20;;;25.40;73.60;;;;;;2349242;53;20970;-68
2021/06/24 09:36:58;;;;;;;3.15;1.30;;;25.40;73.60;;;;;;2346423;53;21021;-71
2021/06/24 09:39:37;;;;;;;3.58;1.25;;;25.40;73.00;;;;;;2324919;53;21859;-68
2021/06/24 09:42:11;;;;;;;1.70;0.90;;;25.50;72.40;;;;;;2348405;53;21002;-66
2021/06/24 09:44:39;;;;;;;2.15;0.95;;;25.50;73.90;;;;;;2348377;53;21002;-67
2021/06/24 09:48:59;;;;;;;3.08;1.00;;;25.60;74.40;;;;;;2350049;53;20946;-71
2021/06/24 09:51:32;;;;;;;2.10;1.10;;;25.70;73.10;;;;;;2422681;52;21010;-69
2021/06/24 09:54:00;;;;;;;3.25;0.93;;;25.80;74.00;;;;;;2345877;53;20938;-67
2021/06/24 09:56:33;;;;;;;2.15;1.05;;;25.80;73.70;;;;;;2349156;53;21515;-68
2021/06/24 09:59:05;;;;;;;2.17;1.00;;;25.90;72.70;;;;;;2344860;53;21924;-67
2021/06/24 10:01:47;;;;;;;2.08;1.00;;;25.90;72.20;;;;;;2352463;53;21502;-67
2021/06/24 10:04:31;;;;;;;1.98;0.93;;;25.80;71.10;;;;;;2346785;53;21005;-66
2021/06/24 10:07:02;;;;;;;2.17;0.90;;;25.80;70.50;;;;;;2346011;54;20959;-70
2021/06/24 10:09:34;;;;;;;1.90;0.93;;;25.80;71.90;;;;;;2352603;53;20910;-67
2021/06/24 10:12:01;;;;;;;2.15;1.05;;;25.70;72.70;;;;;;2324405;54;20925;-69
2021/06/24 10:14:28;;;;;;;1.90;0.90;;;25.70;73.10;;;;;;2445411;52;21053;-69
2021/06/24 10:16:58;;;;;;;2.08;0.90;;;25.70;73.70;;;;;;2346091;53;20986;-71
2021/06/24 10:19:35;;;;;;;3.08;1.40;;;25.80;73.90;;;;;;2347556;53;21030;-67
2021/06/24 10:22:08;;;;;;;2.50;1.25;;;25.90;70.80;;;;;;2342754;53;20929;-68
2021/06/24 10:24:47;;;;;;;2.70;1.10;;;25.90;71.90;;;;;;2331077;53;20971;-68
2021/06/24 10:27:13;;;;;;;1.77;0.90;;;25.90;72.40;;;;;;2346923;53;20986;-70
2021/06/24 10:29:45;;;;;;;2.30;1.00;;;25.90;72.60;;;;;;2345535;53;20922;-67
2021/06/24 10:32:33;;;;;;;2.30;0.80;;;26.00;71.70;;;;;;2349801;53;21058;-69
2021/06/24 10:35:01;;;;;;;1.70;0.80;;;26.00;68.70;;;;;;2347939;53;20986;-67
2021/06/24 10:37:28;;;;;;;1.90;0.70;;;26.10;71.20;;;;;;2347528;53;21808;-68
2021/06/24 10:39:58;;;;;;;1.90;0.77;;;26.10;71.40;;;;;;2348014;54;20930;-67
2021/06/24 10:42:26;;;;;;;2.30;0.90;;;26.20;71.40;;;;;;2346555;53;20996;-67
2021/06/24 10:45:05;;;;;;;2.80;0.90;;;26.20;71.60;;;;;;2352293;53;22150;-68
2021/06/24 10:47:41;;;;;;;1.33;0.75;;;26.30;69.90;;;;;;2348973;53;20926;-68
2021/06/24 10:50:32;;;;;;;2.35;0.90;;;26.30;70.10;;;;;;2349156;53;21025;-67
2021/06/24 10:53:50;;;;;;;2.07;0.80;;;26.40;69.20;;;;;;2350630;53;21538;-67
2021/06/24 10:56:27;;;;;;;1.30;0.62;;;26.50;69.30;;;;;;2378373;53;21447;-67
2021/06/24 10:58:56;;;;;;;1.62;0.73;;;26.50;69.50;;;;;;2344462;53;21054;-67
2021/06/24 11:01:42;;;;;;;0.60;0.40;;;26.60;71.10;;;;;;2347873;54;21085;-69
2021/06/24 11:04:22;;;;;;;2.03;0.75;;;26.60;69.00;;;;;;2349210;53;21505;-71
2021/06/24 11:06:51;;;;;;;1.77;0.60;;;26.60;69.80;;;;;;2347626;53;20984;-70
2021/06/24 11:09:19;;;;;;;1.75;0.70;;;26.60;69.80;;;;;;2586486;52;20983;-71
2021/06/24 11:11:46;;;;;;;1.75;0.70;;;26.70;70.00;;;;;;2350507;53;20977;-71
2021/06/24 11:14:16;;;;;;;1.62;0.70;;;26.70;69.50;;;;;;2344579;53;21341;-70
2021/06/24 11:16:43;;;;;;;1.52;0.70;;;26.80;69.60;;;;;;2346663;53;21747;-66
2021/06/24 11:19:14;;;;;;;3.62;0.70;;;26.80;69.50;;;;;;2343114;53;21039;-67
2021/06/24 11:21:50;;;;;;;1.17;0.55;;;26.90;68.20;;;;;;2345148;54;20959;-67
2021/06/24 11:24:18;;;;;;;1.85;0.70;;;26.90;66.70;;;;;;2353901;53;20962;-69
2021/06/24 11:26:49;;;;;;;1.90;0.80;;;26.90;67.20;;;;;;2381393;52;20944;-73
2021/06/24 11:29:40;;;;;;;1.70;0.70;;;26.90;66.70;;;;;;2345501;54;20937;-71
2021/06/24 11:32:17;;;;;;;1.50;0.70;;;26.90;65.20;;;;;;2349541;53;21022;-69
2021/06/24 11:34:56;;;;;;;2.35;0.80;;;26.90;66.30;;;;;;2352037;53;20918;-66
2021/06/24 11:37:26;;;;;;;1.42;0.68;;;26.90;64.80;;;;;;2346397;53;20936;-68
2021/06/24 11:39:54;;;;;;;1.42;0.60;;;26.90;65.60;;;;;;2343043;53;20916;-69
2021/06/24 11:42:36;;;;;;;1.67;0.80;;;26.90;66.00;;;;;;2343454;53;20953;-67
2021/06/24 11:45:03;;;;;;;1.50;0.60;;;26.90;66.10;;;;;;2346413;53;20938;-72
2021/06/24 11:47:33;;;;;;;1.30;0.60;;;26.90;66.50;;;;;;2350312;53;20920;-73
2021/06/24 12:05:21;;;;;;;0.77;0.40;;;27.10;66.70;;;;;;2586219;52;20929;-66
2021/06/24 12:07:48;;;;;;;1.73;0.57;;;27.00;66.40;;;;;;2349887;53;21078;-67
2021/06/24 12:10:20;;;;;;;0.85;0.37;;;27.00;66.50;;;;;;2344446;53;21185;-67
2021/06/24 12:12:46;;;;;;;0.55;0.30;;;27.00;66.00;;;;;;2326208;54;20999;-67
2021/06/24 12:15:15;;;;;;;0.60;0.32;;;27.00;67.30;;;;;;2344873;53;20978;-70
2021/06/24 12:17:42;;;;;;;0.52;0.30;;;27.00;67.30;;;;;;2527953;52;21827;-67
2021/06/24 12:20:23;;;;;;;0.88;0.35;;;27.00;67.20;;;;;;2346731;54;21064;-69
2021/06/24 12:22:58;;;;;;;0.85;0.40;;;27.00;65.50;;;;;;2347737;54;20941;-71
2021/06/24 12:25:28;;;;;;;0.90;0.40;;;27.00;67.30;;;;;;2589373;52;21026;-71
2021/06/24 12:28:04;;;;;;;1.05;0.43;;;27.00;67.30;;;;;;2345349;53;20945;-73
2021/06/24 12:30:35;;;;;;;0.98;0.47;;;27.00;66.50;;;;;;2349589;53;21276;-67
2021/06/24 12:33:06;;;;;;;0.62;0.30;;;27.00;66.70;;;;;;2348560;53;21405;-67
2021/06/24 12:35:40;;;;;;;0.93;0.50;;;27.00;67.50;;;;;;2349185;53;21826;-67
2021/06/24 12:38:13;;;;;;;0.60;0.30;;;27.00;68.00;;;;;;2539048;52;21018;-67
2021/06/24 12:40:40;;;;;;;1.30;0.50;;;27.10;68.30;;;;;;2349395;53;20939;-67
2021/06/24 12:43:08;;;;;;;1.05;0.50;;;27.10;68.30;;;;;;2586796;52;20985;-67
2021/06/24 12:45:43;;;;;;;1.08;0.50;;;27.10;68.10;;;;;;2344465;53;21531;-67
2021/06/24 12:54:58;;;;;;;1.20;0.50;;;27.10;68.30;;;;;;2343644;53;20918;-69
2021/06/24 12:57:24;;;;;;;1.00;0.43;;;27.30;67.70;;;;;;2326747;54;21006;-70
2021/06/24 12:59:51;;;;;;;2.22;0.52;;;27.30;68.80;;;;;;2348643;53;20938;-70
2021/06/24 13:02:17;;;;;;;0.95;0.50;;;27.30;68.70;;;;;;2344680;53;21027;-67
2021/06/24 13:04:43;;;;;;;0.80;0.40;;;27.30;68.50;;;;;;2354839;53;20974;-69
2021/06/24 13:07:12;;;;;;;1.00;0.43;;;27.30;68.30;;;;;;2369549;52;20907;-67
2021/06/24 13:09:41;;;;;;;0.88;0.40;;;27.30;68.00;;;;;;2346365;53;20942;-68
2021/06/24 13:12:08;;;;;;;1.08;0.40;;;27.40;68.10;;;;;;2328147;53;20966;-70
2021/06/24 13:14:42;;;;;;;0.90;0.45;;;27.40;68.10;;;;;;2345081;53;21004;-69
2021/06/24 13:17:12;;;;;;;1.00;0.50;;;27.50;67.00;;;;;;2345590;53;21006;-67
2021/06/24 13:19:55;;;;;;;0.70;0.40;;;27.50;68.20;;;;;;2345503;53;20942;-67
2021/06/24 13:22:23;;;;;;;0.55;0.32;;;27.60;65.70;;;;;;2346412;53;20945;-68